createdAt,value
2017-08-16T00:00:47.409Z,0
2017-08-16T00:01:57.681Z,0
2017-08-16T00:03:07.953Z,0
2017-08-16T00:04:17.913Z,0
2017-08-16T00:05:27.868Z,0
2017-08-16T00:06:38.138Z,0
2017-08-16T00:07:48.410Z,0
2017-08-16T00:08:58.365Z,0
2017-08-16T00:10:08.644Z,0
2017-08-16T00:11:18.283Z,0
2017-08-16T00:12:28.553Z,0
2017-08-16T00:13:38.824Z,0
2017-08-16T00:14:48.780Z,0
2017-08-16T00:15:58.736Z,0
2017-08-16T00:17:09.007Z,0
2017-08-16T00:18:19.280Z,0
2017-08-16T00:19:29.234Z,0
2017-08-16T00:20:38.873Z,0
2017-08-16T00:21:49.168Z,0
2017-08-16T00:22:59.128Z,0
2017-08-16T00:24:09.404Z,0
2017-08-16T00:25:19.678Z,0
2017-08-16T00:26:29.633Z,0
2017-08-16T00:27:39.592Z,0
2017-08-16T00:28:49.865Z,0
2017-08-16T00:30:00.139Z,0
2017-08-16T00:31:10.409Z,0
2017-08-16T00:32:20.680Z,0
2017-08-16T00:33:30.971Z,0
2017-08-16T00:34:41.242Z,0
2017-08-16T00:35:51.519Z,0
2017-08-16T00:37:01.481Z,0
2017-08-16T00:38:11.441Z,0
2017-08-16T00:39:21.717Z,0
2017-08-16T00:40:31.990Z,0
2017-08-16T00:41:44.843Z,0
2017-08-16T00:42:54.802Z,0
2017-08-16T00:44:05.073Z,0
2017-08-16T00:45:15.036Z,0
2017-08-16T00:46:25.309Z,0
2017-08-16T00:47:35.265Z,0
2017-08-16T00:48:45.221Z,0
2017-08-16T00:49:55.494Z,0
2017-08-16T00:51:05.777Z,0
2017-08-16T00:52:16.053Z,0
2017-08-16T00:53:26.325Z,0
2017-08-16T00:54:36.282Z,0
2017-08-16T00:55:46.555Z,0
2017-08-16T00:56:56.828Z,0
2017-08-16T00:58:06.786Z,0
2017-08-16T00:59:17.057Z,0
2017-08-16T01:00:27.340Z,0
2017-08-16T01:01:37.610Z,0
2017-08-16T01:02:47.564Z,0
2017-08-16T01:03:57.840Z,0
2017-08-16T01:05:08.119Z,0
2017-08-16T01:06:18.393Z,0
2017-08-16T01:07:28.352Z,0
2017-08-16T01:08:38.623Z,0
2017-08-16T01:09:48.269Z,0
2017-08-16T01:10:58.540Z,0
2017-08-16T01:12:08.814Z,0
2017-08-16T01:13:19.088Z,0
2017-08-16T01:14:28.739Z,0
2017-08-16T01:15:39.013Z,0
2017-08-16T01:16:49.289Z,0
2017-08-16T01:17:59.558Z,0
2017-08-16T01:19:09.517Z,0
2017-08-16T01:20:19.789Z,0
2017-08-16T01:21:29.750Z,0
2017-08-16T01:22:40.020Z,0
2017-08-16T01:23:49.662Z,0
2017-08-16T01:24:59.934Z,0
2017-08-16T01:26:09.582Z,0
2017-08-16T01:27:19.854Z,0
2017-08-16T01:28:30.127Z,0
2017-08-16T01:29:40.085Z,0
2017-08-16T01:30:49.731Z,0
2017-08-16T01:32:00.010Z,0
2017-08-16T01:33:09.973Z,0
2017-08-16T01:34:19.930Z,0
2017-08-16T01:35:29.886Z,0
2017-08-16T01:36:39.533Z,0
2017-08-16T01:37:49.826Z,0
2017-08-16T01:39:00.124Z,0
2017-08-16T01:40:10.396Z,0
2017-08-16T01:41:20.040Z,0
2017-08-16T01:42:29.703Z,0
2017-08-16T01:43:39.660Z,0
2017-08-16T01:44:49.620Z,0
2017-08-16T01:45:59.891Z,0
2017-08-16T01:47:09.852Z,0
2017-08-16T01:48:20.123Z,0
2017-08-16T01:49:30.395Z,0
2017-08-16T01:50:40.038Z,0
2017-08-16T01:51:49.992Z,0
2017-08-16T01:53:00.269Z,0
2017-08-16T01:54:10.571Z,0
2017-08-16T01:55:20.847Z,0
2017-08-16T01:56:31.120Z,0
2017-08-16T01:57:41.402Z,0
2017-08-16T01:58:51.674Z,0
2017-08-16T02:00:01.633Z,0
2017-08-16T02:01:11.913Z,0
2017-08-16T02:02:22.186Z,0
2017-08-16T02:03:32.142Z,0
2017-08-16T02:04:41.785Z,0
2017-08-16T02:05:52.062Z,0
2017-08-16T02:07:02.018Z,0
2017-08-16T02:08:11.982Z,0
2017-08-16T02:09:22.253Z,0
2017-08-16T02:10:32.524Z,0
2017-08-16T02:11:42.166Z,0
2017-08-16T02:12:52.134Z,0
2017-08-16T02:14:02.089Z,0
2017-08-16T02:15:12.073Z,0
2017-08-16T02:16:22.036Z,0
2017-08-16T02:17:31.680Z,0
2017-08-16T02:18:41.960Z,0
2017-08-16T02:19:52.233Z,0
2017-08-16T02:21:02.191Z,0
2017-08-16T02:22:11.860Z,0
2017-08-16T02:23:22.130Z,0
2017-08-16T02:24:32.401Z,0
2017-08-16T02:25:42.678Z,0
2017-08-16T02:26:52.962Z,0
2017-08-16T02:28:02.605Z,0
2017-08-16T02:29:12.877Z,0
2017-08-16T02:30:23.155Z,0
2017-08-16T02:31:33.124Z,0
2017-08-16T02:32:43.400Z,0
2017-08-16T02:33:53.674Z,0
2017-08-16T02:35:03.639Z,0
2017-08-16T02:36:13.922Z,0
2017-08-16T02:37:24.199Z,0
2017-08-16T02:38:34.160Z,0
2017-08-16T02:39:44.443Z,0
2017-08-16T02:40:54.720Z,0
2017-08-16T02:42:04.698Z,0
2017-08-16T02:43:14.661Z,0
2017-08-16T02:44:24.936Z,0
2017-08-16T02:45:35.214Z,0
2017-08-16T02:46:44.859Z,0
2017-08-16T02:47:55.134Z,0
2017-08-16T02:49:05.409Z,0
2017-08-16T02:50:15.679Z,0
2017-08-16T02:51:25.643Z,0
2017-08-16T02:52:35.288Z,4
2017-08-16T02:53:45.247Z,4
2017-08-16T02:54:55.521Z,4
2017-08-16T02:56:05.798Z,0
2017-08-16T02:57:16.070Z,4
2017-08-16T02:58:26.343Z,4
2017-08-16T02:59:36.620Z,8
2017-08-16T03:00:45.953Z,4
2017-08-16T03:01:56.229Z,8
2017-08-16T03:03:05.879Z,12
2017-08-16T03:04:16.154Z,8
2017-08-16T03:05:26.117Z,8
2017-08-16T03:06:36.073Z,12
2017-08-16T03:07:46.344Z,12
2017-08-16T03:08:56.304Z,12
2017-08-16T03:10:06.263Z,12
2017-08-16T03:11:16.536Z,8
2017-08-16T03:12:26.811Z,12
2017-08-16T03:13:36.772Z,8
2017-08-16T03:14:47.043Z,12
2017-08-16T03:15:57.001Z,16
2017-08-16T03:17:06.963Z,16
2017-08-16T03:18:16.919Z,16
2017-08-16T03:19:27.189Z,16
2017-08-16T03:20:37.157Z,20
2017-08-16T03:21:47.126Z,20
2017-08-16T03:22:57.084Z,20
2017-08-16T03:24:07.047Z,20
2017-08-16T03:25:17.320Z,20
2017-08-16T03:26:27.592Z,28
2017-08-16T03:27:37.866Z,32
2017-08-16T03:28:47.826Z,32
2017-08-16T03:29:57.781Z,36
2017-08-16T03:31:07.752Z,36
2017-08-16T03:32:17.709Z,40
2017-08-16T03:33:27.666Z,36
2017-08-16T03:34:37.935Z,32
2017-08-16T03:35:47.896Z,36
2017-08-16T03:36:58.170Z,36
2017-08-16T03:38:08.446Z,44
2017-08-16T03:39:18.400Z,52
2017-08-16T03:40:28.363Z,52
2017-08-16T03:41:38.639Z,56
2017-08-16T03:42:48.912Z,60
2017-08-16T03:43:58.869Z,64
2017-08-16T03:45:09.145Z,80
2017-08-16T03:46:19.419Z,80
2017-08-16T03:47:29.700Z,88
2017-08-16T03:48:40.021Z,96
2017-08-16T03:49:50.294Z,104
2017-08-16T03:51:00.564Z,112
2017-08-16T03:52:10.836Z,124
2017-08-16T03:53:21.106Z,140
2017-08-16T03:54:31.407Z,152
2017-08-16T03:55:41.372Z,164
2017-08-16T03:56:51.644Z,164
2017-08-16T03:58:01.602Z,184
2017-08-16T03:59:11.879Z,200
2017-08-16T04:00:21.835Z,232
2017-08-16T04:01:32.106Z,216
2017-08-16T04:02:42.400Z,176
2017-08-16T04:03:52.356Z,156
2017-08-16T04:05:02.628Z,172
2017-08-16T04:06:12.899Z,196
2017-08-16T04:07:22.860Z,208
2017-08-16T04:08:33.139Z,200
2017-08-16T04:09:43.408Z,168
2017-08-16T04:10:53.686Z,168
2017-08-16T04:12:03.647Z,188
2017-08-16T04:13:13.298Z,240
2017-08-16T04:14:23.569Z,280
2017-08-16T04:15:33.845Z,296
2017-08-16T04:16:44.123Z,316
2017-08-16T04:17:54.079Z,340
2017-08-16T04:19:03.721Z,360
2017-08-16T04:20:14.017Z,364
2017-08-16T04:21:24.289Z,388
2017-08-16T04:22:34.245Z,424
2017-08-16T04:23:44.529Z,428
2017-08-16T04:24:54.805Z,416
2017-08-16T04:26:04.763Z,452
2017-08-16T04:27:14.719Z,528
2017-08-16T04:28:24.992Z,576
2017-08-16T04:29:35.274Z,644
2017-08-16T04:30:45.233Z,700
2017-08-16T04:31:55.506Z,684
2017-08-16T04:33:05.793Z,716
2017-08-16T04:34:16.064Z,728
2017-08-16T04:35:26.022Z,748
2017-08-16T04:36:35.664Z,764
2017-08-16T04:37:45.939Z,800
2017-08-16T04:38:56.209Z,872
2017-08-16T04:40:06.481Z,916
2017-08-16T04:41:16.125Z,924
2017-08-16T04:42:26.082Z,916
2017-08-16T04:43:36.410Z,888
2017-08-16T04:44:46.697Z,888
2017-08-16T04:45:56.652Z,892
2017-08-16T04:47:06.926Z,860
2017-08-16T04:48:17.196Z,836
2017-08-16T04:49:27.152Z,820
2017-08-16T04:50:37.111Z,816
2017-08-16T04:51:47.384Z,812
2017-08-16T04:52:57.025Z,796
2017-08-16T04:54:07.307Z,768
2017-08-16T04:55:17.583Z,728
2017-08-16T04:56:27.543Z,716
2017-08-16T04:57:36.875Z,736
2017-08-16T04:58:46.832Z,800
2017-08-16T04:59:57.103Z,880
2017-08-16T05:01:07.076Z,964
2017-08-16T05:02:17.032Z,1040
2017-08-16T05:03:27.308Z,1108
2017-08-16T05:04:36.952Z,1168
2017-08-16T05:05:47.231Z,1204
2017-08-16T05:06:57.185Z,1388
2017-08-16T05:08:07.168Z,1704
2017-08-16T05:09:17.442Z,2144
2017-08-16T05:10:27.711Z,2364
2017-08-16T05:11:37.980Z,2576
2017-08-16T05:12:48.250Z,2756
2017-08-16T05:13:58.212Z,2816
2017-08-16T05:15:08.181Z,2964
2017-08-16T05:16:18.410Z,3044
2017-08-16T05:17:28.680Z,2864
2017-08-16T05:18:38.639Z,2888
2017-08-16T05:19:48.915Z,2828
2017-08-16T05:20:58.892Z,2980
2017-08-16T05:22:09.164Z,3060
2017-08-16T05:23:19.434Z,2376
2017-08-16T05:24:29.394Z,1992
2017-08-16T05:25:39.352Z,2032
2017-08-16T05:26:49.624Z,2136
2017-08-16T05:27:59.585Z,2232
2017-08-16T05:29:09.862Z,2388
2017-08-16T05:30:20.131Z,2072
2017-08-16T05:31:30.085Z,2316
2017-08-16T05:32:39.724Z,2616
2017-08-16T05:33:49.679Z,2840
2017-08-16T05:34:59.639Z,3016
2017-08-16T05:36:09.597Z,3176
2017-08-16T05:37:19.558Z,3528
2017-08-16T05:38:29.520Z,3168
2017-08-16T05:39:39.484Z,2908
2017-08-16T05:40:49.761Z,3060
2017-08-16T05:41:59.404Z,3064
2017-08-16T05:43:09.674Z,3096
2017-08-16T05:44:19.946Z,3480
2017-08-16T05:45:29.277Z,3740
2017-08-16T05:46:39.241Z,3900
2017-08-16T05:47:49.516Z,3588
2017-08-16T05:48:59.474Z,3192
2017-08-16T05:50:09.432Z,2972
2017-08-16T05:51:19.111Z,3108
2017-08-16T05:52:29.384Z,3400
2017-08-16T05:53:39.345Z,3608
2017-08-16T05:54:49.616Z,3808
2017-08-16T05:55:59.597Z,3928
2017-08-16T05:57:09.886Z,3908
2017-08-16T05:58:19.846Z,3960
2017-08-16T05:59:30.124Z,4216
2017-08-16T06:00:40.405Z,4428
2017-08-16T06:01:50.688Z,4572
2017-08-16T06:03:00.961Z,4728
2017-08-16T06:04:11.252Z,4748
2017-08-16T06:05:21.530Z,4492
2017-08-16T06:06:31.802Z,3908
2017-08-16T06:07:42.070Z,3116
2017-08-16T06:08:52.030Z,3112
2017-08-16T06:10:02.305Z,3460
2017-08-16T06:11:12.582Z,4172
2017-08-16T06:12:22.546Z,4584
2017-08-16T06:13:32.819Z,4600
2017-08-16T06:14:43.090Z,5020
2017-08-16T06:15:53.052Z,5400
2017-08-16T06:17:03.331Z,5128
2017-08-16T06:18:13.603Z,4460
2017-08-16T06:19:23.246Z,3912
2017-08-16T06:20:33.202Z,3644
2017-08-16T06:21:43.157Z,3496
2017-08-16T06:22:53.430Z,3240
2017-08-16T06:24:03.396Z,3180
2017-08-16T06:25:13.353Z,3220
2017-08-16T06:26:23.313Z,3464
2017-08-16T06:27:32.955Z,3864
2017-08-16T06:28:43.231Z,3976
2017-08-16T06:29:53.510Z,4228
2017-08-16T06:31:03.196Z,4692
2017-08-16T06:32:13.154Z,4756
2017-08-16T06:33:23.440Z,5160
2017-08-16T06:34:33.402Z,5520
2017-08-16T06:35:43.684Z,5920
2017-08-16T06:36:53.960Z,5852
2017-08-16T06:38:04.241Z,6140
2017-08-16T06:39:14.201Z,5876
2017-08-16T06:40:24.475Z,6052
2017-08-16T06:41:34.438Z,5968
2017-08-16T06:42:44.730Z,6572
2017-08-16T06:43:55.005Z,7028
2017-08-16T06:45:05.279Z,7956
2017-08-16T06:46:15.560Z,7524
2017-08-16T06:47:25.838Z,7584
2017-08-16T06:48:35.803Z,6876
2017-08-16T06:49:45.761Z,6544
2017-08-16T06:50:56.033Z,5772
2017-08-16T06:52:05.990Z,5020
2017-08-16T06:53:15.639Z,4740
2017-08-16T06:54:25.925Z,4780
2017-08-16T06:55:36.200Z,5064
2017-08-16T06:56:46.470Z,5480
2017-08-16T06:57:56.751Z,6380
2017-08-16T06:59:06.398Z,7208
2017-08-16T07:00:16.357Z,7192
2017-08-16T07:01:26.635Z,7100
2017-08-16T07:02:35.969Z,6172
2017-08-16T07:03:46.252Z,4940
2017-08-16T07:04:56.554Z,3892
2017-08-16T07:06:06.833Z,3544
2017-08-16T07:07:17.129Z,3688
2017-08-16T07:08:27.089Z,3484
2017-08-16T07:09:37.060Z,3300
2017-08-16T07:10:47.344Z,2944
2017-08-16T07:11:57.300Z,2932
2017-08-16T07:13:07.577Z,3076
2017-08-16T07:14:17.853Z,2980
2017-08-16T07:15:28.126Z,2912
2017-08-16T07:16:37.771Z,2904
2017-08-16T07:17:48.046Z,3000
2017-08-16T07:18:58.318Z,2976
2017-08-16T07:20:08.280Z,2964
2017-08-16T07:21:18.240Z,3080
2017-08-16T07:22:28.207Z,3356
2017-08-16T07:23:38.488Z,3348
2017-08-16T07:24:48.913Z,3328
2017-08-16T07:25:59.189Z,3332
2017-08-16T07:27:09.468Z,3344
2017-08-16T07:28:19.743Z,3372
2017-08-16T07:29:30.019Z,3420
2017-08-16T07:30:42.445Z,3440
2017-08-16T07:31:52.721Z,3440
2017-08-16T07:33:02.996Z,3440
2017-08-16T07:34:12.957Z,3468
2017-08-16T07:35:23.226Z,3504
2017-08-16T07:36:33.183Z,3452
2017-08-16T07:37:43.267Z,3412
2017-08-16T07:38:53.547Z,3448
2017-08-16T07:40:03.828Z,3532
2017-08-16T07:41:13.479Z,3736
2017-08-16T07:42:23.768Z,3688
2017-08-16T07:43:33.726Z,3556
2017-08-16T07:44:43.376Z,3568
2017-08-16T07:45:53.654Z,3476
2017-08-16T07:47:03.617Z,3484
2017-08-16T07:48:13.891Z,3576
2017-08-16T07:49:23.535Z,3528
2017-08-16T07:50:33.209Z,3436
2017-08-16T07:51:43.487Z,3460
2017-08-16T07:52:53.804Z,3516
2017-08-16T07:54:03.457Z,3532
2017-08-16T07:55:13.420Z,3560
2017-08-16T07:56:23.700Z,3496
2017-08-16T07:57:33.343Z,3484
2017-08-16T07:58:43.306Z,3496
2017-08-16T07:59:53.262Z,3460
2017-08-16T08:01:03.536Z,3452
2017-08-16T08:02:13.500Z,3396
2017-08-16T08:03:23.458Z,3408
2017-08-16T08:04:33.418Z,3440
2017-08-16T08:05:43.743Z,3428
2017-08-16T08:06:53.764Z,3444
2017-08-16T08:08:04.066Z,3604
2017-08-16T08:09:14.022Z,3492
2017-08-16T08:10:23.663Z,3560
2017-08-16T08:11:33.332Z,3536
2017-08-16T08:12:43.605Z,3560
2017-08-16T08:13:53.579Z,3716
2017-08-16T08:15:03.538Z,3528
2017-08-16T08:16:13.188Z,3156
2017-08-16T08:17:23.154Z,3516
2017-08-16T08:18:33.117Z,3508
2017-08-16T08:19:43.389Z,3508
2017-08-16T08:20:53.663Z,3496
2017-08-16T08:22:03.621Z,3480
2017-08-16T08:23:13.896Z,3488
2017-08-16T08:24:24.169Z,3488
2017-08-16T08:25:34.453Z,3496
2017-08-16T08:26:44.415Z,3508
2017-08-16T08:27:54.380Z,3512
2017-08-16T08:29:04.654Z,3520
2017-08-16T08:30:14.296Z,3504
2017-08-16T08:31:24.566Z,3492
2017-08-16T08:32:34.846Z,3496
2017-08-16T08:33:45.133Z,3564
2017-08-16T08:34:55.404Z,3536
2017-08-16T08:36:05.048Z,3404
2017-08-16T08:37:15.325Z,3512
2017-08-16T08:38:25.282Z,3500
2017-08-16T08:39:35.554Z,3504
2017-08-16T08:40:45.828Z,3528
2017-08-16T08:41:56.118Z,3580
2017-08-16T08:43:06.086Z,3572
2017-08-16T08:44:16.047Z,3520
2017-08-16T08:45:26.003Z,3520
2017-08-16T08:46:35.646Z,3516
2017-08-16T08:47:45.924Z,3516
2017-08-16T08:48:56.195Z,3528
2017-08-16T08:50:06.154Z,3544
2017-08-16T08:51:16.428Z,3560
2017-08-16T08:52:26.399Z,3568
2017-08-16T08:53:36.042Z,3544
2017-08-16T08:54:46.013Z,3548
2017-08-16T08:55:56.288Z,3556
2017-08-16T08:57:06.565Z,3592
2017-08-16T08:58:16.850Z,3680
2017-08-16T08:59:26.497Z,3604
2017-08-16T09:00:36.141Z,3688
2017-08-16T09:01:46.099Z,3588
2017-08-16T09:02:56.373Z,3584
2017-08-16T09:04:06.335Z,3604
2017-08-16T09:05:16.608Z,3600
2017-08-16T09:06:26.570Z,3616
2017-08-16T09:07:36.216Z,3624
2017-08-16T09:08:46.186Z,3632
2017-08-16T09:09:56.461Z,3632
2017-08-16T09:11:06.423Z,3640
2017-08-16T09:12:16.384Z,3664
2017-08-16T09:13:26.368Z,3664
2017-08-16T09:14:36.333Z,3676
2017-08-16T09:15:45.980Z,3696
2017-08-16T09:16:55.629Z,3700
2017-08-16T09:18:05.590Z,3708
2017-08-16T09:19:15.557Z,3716
2017-08-16T09:20:25.829Z,3724
2017-08-16T09:21:35.786Z,3740
2017-08-16T09:22:46.062Z,3764
2017-08-16T09:23:56.338Z,3772
2017-08-16T09:25:06.299Z,3772
2017-08-16T09:26:16.272Z,3792
2017-08-16T09:27:26.239Z,3796
2017-08-16T09:28:36.517Z,3808
2017-08-16T09:29:46.793Z,3824
2017-08-16T09:30:57.066Z,3848
2017-08-16T09:32:07.028Z,3864
2017-08-16T09:33:16.370Z,3884
2017-08-16T09:34:26.646Z,3904
2017-08-16T09:35:36.919Z,3932
2017-08-16T09:36:47.192Z,3960
2017-08-16T09:37:57.467Z,3968
2017-08-16T09:39:07.114Z,3988
2017-08-16T09:40:17.073Z,4000
2017-08-16T09:41:27.045Z,4020
2017-08-16T09:42:37.346Z,4068
2017-08-16T09:43:47.320Z,4080
2017-08-16T09:44:57.767Z,4040
2017-08-16T09:46:07.728Z,4028
2017-08-16T09:47:17.696Z,4084
2017-08-16T09:48:27.974Z,4152
2017-08-16T09:49:37.931Z,4220
2017-08-16T09:50:48.204Z,4228
2017-08-16T09:51:58.488Z,4240
2017-08-16T09:53:08.141Z,4368
2017-08-16T09:54:17.791Z,4192
2017-08-16T09:55:28.073Z,4172
2017-08-16T09:56:38.365Z,4180
2017-08-16T09:57:48.649Z,4240
2017-08-16T09:58:58.607Z,4356
2017-08-16T10:00:08.148Z,4480
2017-08-16T10:01:18.426Z,4300
2017-08-16T10:02:28.394Z,4388
2017-08-16T10:03:38.356Z,4328
2017-08-16T10:04:48.636Z,4444
2017-08-16T10:05:58.596Z,4420
2017-08-16T10:07:08.252Z,4532
2017-08-16T10:08:17.905Z,4560
2017-08-16T10:09:27.871Z,4636
2017-08-16T10:10:37.517Z,4736
2017-08-16T10:11:47.795Z,4684
2017-08-16T10:12:57.756Z,4676
2017-08-16T10:14:07.729Z,4796
2017-08-16T10:15:17.724Z,4736
2017-08-16T10:16:28.002Z,4608
2017-08-16T10:17:37.666Z,4680
2017-08-16T10:18:47.944Z,4796
2017-08-16T10:19:57.903Z,4864
2017-08-16T10:21:07.873Z,4928
2017-08-16T10:22:17.833Z,5068
2017-08-16T10:23:28.110Z,5180
2017-08-16T10:24:38.079Z,5260
2017-08-16T10:25:48.357Z,5428
2017-08-16T10:26:58.634Z,5700
2017-08-16T10:28:08.279Z,6056
2017-08-16T10:29:18.241Z,6484
2017-08-16T10:30:28.517Z,6988
2017-08-16T10:31:38.790Z,7856
2017-08-16T10:32:48.438Z,8780
2017-08-16T10:33:58.406Z,9620
2017-08-16T10:35:08.052Z,8672
2017-08-16T10:36:18.329Z,10844
2017-08-16T10:37:28.294Z,11300
2017-08-16T10:38:37.947Z,12292
2017-08-16T10:39:48.229Z,12412
2017-08-16T10:40:58.503Z,11980
2017-08-16T10:42:08.153Z,11320
2017-08-16T10:43:18.123Z,10076
2017-08-16T10:44:28.403Z,8352
2017-08-16T10:45:38.050Z,9208
2017-08-16T10:46:48.324Z,9696
2017-08-16T10:47:58.599Z,9708
2017-08-16T10:49:08.878Z,12028
2017-08-16T10:50:18.842Z,13512
2017-08-16T10:51:29.124Z,15144
2017-08-16T10:52:39.093Z,14588
2017-08-16T10:53:49.371Z,13724
2017-08-16T10:54:59.331Z,14388
2017-08-16T10:56:09.607Z,13856
2017-08-16T10:57:19.885Z,14632
2017-08-16T10:58:29.851Z,13472
2017-08-16T10:59:40.131Z,12784
2017-08-16T11:00:50.409Z,14340
2017-08-16T11:02:00.374Z,16032
2017-08-16T11:03:10.337Z,18080
2017-08-16T11:04:20.304Z,19136
2017-08-16T11:05:30.589Z,18304
2017-08-16T11:06:40.558Z,17792
2017-08-16T11:07:50.837Z,17120
2017-08-16T11:09:01.117Z,16608
2017-08-16T11:10:11.409Z,17056
2017-08-16T11:11:21.064Z,18592
2017-08-16T11:12:31.030Z,17600
2017-08-16T11:13:41.311Z,15648
2017-08-16T11:14:51.596Z,14992
2017-08-16T11:16:01.878Z,14944
2017-08-16T11:17:12.157Z,17472
2017-08-16T11:18:21.493Z,19360
2017-08-16T11:19:31.771Z,19776
2017-08-16T11:20:41.759Z,18560
2017-08-16T11:21:52.040Z,18400
2017-08-16T11:23:02.328Z,20864
2017-08-16T11:24:12.298Z,20000
2017-08-16T11:25:22.264Z,20512
2017-08-16T11:26:32.546Z,18752
2017-08-16T11:27:42.829Z,21024
2017-08-16T11:28:53.106Z,22080
2017-08-16T11:30:03.069Z,79872
2017-08-16T11:31:13.349Z,91968
2017-08-16T11:32:23.318Z,66176
2017-08-16T11:33:33.603Z,86048
2017-08-16T11:34:42.942Z,83424
2017-08-16T11:35:52.907Z,60800
2017-08-16T11:37:02.873Z,47200
2017-08-16T11:38:12.535Z,81024
2017-08-16T11:39:21.875Z,84096
2017-08-16T11:40:32.166Z,82688
2017-08-16T11:41:42.134Z,80992
2017-08-16T11:42:52.419Z,67552
2017-08-16T11:44:02.705Z,80768
2017-08-16T11:45:12.987Z,31040
2017-08-16T11:46:22.964Z,24320
2017-08-16T11:47:33.257Z,68032
2017-08-16T11:48:43.551Z,87360
2017-08-16T11:49:53.840Z,69984
2017-08-16T11:51:03.546Z,21824
2017-08-16T11:52:13.914Z,16256
2017-08-16T11:53:24.234Z,16448
2017-08-16T11:54:34.210Z,17664
2017-08-16T11:55:43.253Z,18336
2017-08-16T11:56:52.912Z,19360
2017-08-16T11:58:03.196Z,80064
2017-08-16T11:59:13.174Z,82368
2017-08-16T12:00:23.470Z,86112
2017-08-16T12:01:33.438Z,85280
2017-08-16T12:02:43.418Z,85888
2017-08-16T12:03:53.705Z,89408
2017-08-16T12:05:03.360Z,90336
2017-08-16T12:06:13.645Z,87264
2017-08-16T12:07:23.935Z,87392
2017-08-16T12:08:33.918Z,86432
2017-08-16T12:09:43.582Z,86848
2017-08-16T12:10:53.553Z,88352
2017-08-16T12:12:03.845Z,84992
2017-08-16T12:13:13.817Z,82624
2017-08-16T12:14:23.811Z,83840
2017-08-16T12:15:34.110Z,81152
2017-08-16T12:16:44.401Z,74752
2017-08-16T12:17:54.699Z,74816
2017-08-16T12:19:05.001Z,80256
2017-08-16T12:20:14.726Z,78624
2017-08-16T12:21:24.702Z,77344
2017-08-16T12:22:34.998Z,79456
2017-08-16T12:23:44.670Z,76864
2017-08-16T12:24:54.967Z,77664
2017-08-16T12:26:05.264Z,80288
2017-08-16T12:27:14.633Z,81216
2017-08-16T12:28:24.295Z,79168
2017-08-16T12:29:34.601Z,77760
2017-08-16T12:30:44.265Z,83008
2017-08-16T12:31:54.558Z,84256
2017-08-16T12:33:04.847Z,86464
2017-08-16T12:34:14.830Z,81024
2017-08-16T12:35:24.813Z,34656
2017-08-16T12:36:34.797Z,11540
2017-08-16T12:37:44.780Z,81760
2017-08-16T12:38:55.074Z,82144
2017-08-16T12:40:05.051Z,81568
2017-08-16T12:41:14.724Z,82816
2017-08-16T12:42:24.077Z,84128
2017-08-16T12:43:34.373Z,84576
2017-08-16T12:44:44.350Z,86816
2017-08-16T12:45:54.338Z,83328
2017-08-16T12:47:04.644Z,78528
2017-08-16T12:48:14.622Z,82528
2017-08-16T12:49:24.945Z,78848
2017-08-16T12:50:35.244Z,75840
2017-08-16T12:51:45.535Z,73824
2017-08-16T12:52:55.538Z,77088
2017-08-16T12:54:05.525Z,80224
2017-08-16T12:55:15.819Z,86048
2017-08-16T12:56:25.800Z,89376
2017-08-16T12:57:35.789Z,84992
2017-08-16T12:58:46.084Z,86400
2017-08-16T12:59:56.060Z,89408
2017-08-16T13:01:05.718Z,91968
2017-08-16T13:02:15.066Z,87872
2017-08-16T13:03:25.045Z,84768
2017-08-16T13:04:35.344Z,84128
2017-08-16T13:05:45.008Z,84576
2017-08-16T13:06:55.311Z,31136
2017-08-16T13:08:05.608Z,15140
2017-08-16T13:09:15.589Z,13344
2017-08-16T13:10:25.882Z,89856
2017-08-16T13:11:35.545Z,62144
2017-08-16T13:12:45.834Z,12420
2017-08-16T13:13:56.127Z,11288
2017-08-16T13:15:06.436Z,10632
2017-08-16T13:16:16.430Z,14320
2017-08-16T13:17:26.723Z,12348
2017-08-16T13:18:37.012Z,11448
2017-08-16T13:19:46.988Z,11440
2017-08-16T13:20:57.272Z,11588
2017-08-16T13:22:07.250Z,16412
2017-08-16T13:23:17.537Z,19168
2017-08-16T13:24:27.511Z,15844
2017-08-16T13:25:37.483Z,11200
2017-08-16T13:26:47.452Z,10832
2017-08-16T13:27:57.739Z,11732
2017-08-16T13:29:07.712Z,77248
2017-08-16T13:30:17.683Z,77696
2017-08-16T13:31:27.968Z,75456
2017-08-16T13:32:37.654Z,82080
2017-08-16T13:33:47.628Z,85504
2017-08-16T13:34:57.595Z,83488
2017-08-16T13:36:07.568Z,80480
2017-08-16T13:37:17.539Z,82592
2017-08-16T13:38:27.833Z,84064
2017-08-16T13:39:38.120Z,82208
2017-08-16T13:40:48.407Z,84736
2017-08-16T13:41:58.379Z,79968
2017-08-16T13:43:08.669Z,78080
2017-08-16T13:44:18.961Z,77760
2017-08-16T13:45:29.255Z,82720
2017-08-16T13:46:39.547Z,80704
2017-08-16T13:47:49.842Z,76512
2017-08-16T13:49:00.132Z,79232
2017-08-16T13:50:09.797Z,77344
2017-08-16T13:51:19.781Z,82496
2017-08-16T13:52:30.082Z,81856
2017-08-16T13:53:39.743Z,79936
2017-08-16T13:54:50.032Z,79072
2017-08-16T13:56:00.008Z,77760
2017-08-16T13:57:09.987Z,73888
2017-08-16T13:58:19.650Z,72384
2017-08-16T13:59:29.624Z,70176
2017-08-16T14:00:39.602Z,66656
2017-08-16T14:01:49.891Z,68096
2017-08-16T14:03:00.180Z,66848
2017-08-16T14:04:10.470Z,62560
2017-08-16T14:05:20.450Z,57824
2017-08-16T14:06:30.130Z,58624
2017-08-16T14:07:40.422Z,60192
2017-08-16T14:08:50.397Z,62016
2017-08-16T14:10:00.688Z,66048
2017-08-16T14:11:10.661Z,57280
2017-08-16T14:12:20.643Z,49152
2017-08-16T14:13:30.930Z,47424
2017-08-16T14:14:41.230Z,47648
2017-08-16T14:15:50.893Z,51104
2017-08-16T14:17:01.187Z,57728
2017-08-16T14:18:11.477Z,61056
2017-08-16T14:19:21.770Z,63104
2017-08-16T14:20:32.060Z,61952
2017-08-16T14:21:42.350Z,63840
2017-08-16T14:22:52.327Z,64992
2017-08-16T14:24:02.625Z,65984
2017-08-16T14:25:12.924Z,69312
2017-08-16T14:26:23.213Z,75264
2017-08-16T14:27:33.192Z,77344
2017-08-16T14:28:43.168Z,73920
2017-08-16T14:29:53.463Z,72192
2017-08-16T14:31:03.754Z,73056
2017-08-16T14:32:13.759Z,72288
2017-08-16T14:33:23.422Z,72256
2017-08-16T14:34:33.396Z,74304
2017-08-16T14:35:43.687Z,82272
2017-08-16T14:36:53.659Z,90688
2017-08-16T14:38:03.638Z,88448
2017-08-16T14:39:13.610Z,83296
2017-08-16T14:40:23.278Z,80416
2017-08-16T14:41:33.577Z,79072
2017-08-16T14:42:43.875Z,75616
2017-08-16T14:43:54.164Z,83552
2017-08-16T14:45:04.453Z,9388
2017-08-16T14:46:14.116Z,8292
2017-08-16T14:47:24.407Z,9108
2017-08-16T14:48:34.066Z,10028
2017-08-16T14:49:44.351Z,11504
2017-08-16T14:50:54.643Z,73696
2017-08-16T14:52:04.933Z,83424
2017-08-16T14:53:14.908Z,81152
2017-08-16T14:54:24.821Z,81472
2017-08-16T14:55:34.480Z,80704
2017-08-16T14:56:44.769Z,83328
2017-08-16T14:57:55.059Z,9472
2017-08-16T14:59:05.034Z,10160
2017-08-16T15:00:15.326Z,41024
2017-08-16T15:01:25.297Z,39104
2017-08-16T15:02:34.960Z,16276
2017-08-16T15:03:45.248Z,76192
2017-08-16T15:04:55.542Z,62208
2017-08-16T15:06:05.516Z,80576
2017-08-16T15:07:15.799Z,79648
2017-08-16T15:08:25.769Z,76704
2017-08-16T15:09:35.426Z,77728
2017-08-16T15:10:45.723Z,55808
2017-08-16T15:11:56.014Z,74880
2017-08-16T15:13:06.301Z,12116
2017-08-16T15:14:16.590Z,12328
2017-08-16T15:15:26.880Z,72960
2017-08-16T15:16:36.852Z,64448
2017-08-16T15:17:46.515Z,67072
2017-08-16T15:18:56.817Z,33600
2017-08-16T15:20:07.107Z,18080
2017-08-16T15:21:17.087Z,36448
2017-08-16T15:22:26.742Z,24384
2017-08-16T15:23:36.715Z,15512
2017-08-16T15:24:46.687Z,20256
2017-08-16T15:25:56.658Z,23808
2017-08-16T15:27:06.632Z,10460
2017-08-16T15:28:16.601Z,10992
2017-08-16T15:29:26.256Z,12744
2017-08-16T15:30:36.226Z,12768
2017-08-16T15:31:46.231Z,13260
2017-08-16T15:32:56.522Z,14712
2017-08-16T15:34:06.806Z,16044
2017-08-16T15:35:16.244Z,17152
2017-08-16T15:36:25.641Z,16864
2017-08-16T15:37:35.942Z,16204
2017-08-16T15:38:46.230Z,15372
2017-08-16T15:39:56.525Z,17216
2017-08-16T15:41:06.498Z,18368
2017-08-16T15:42:16.150Z,18880
2017-08-16T15:43:26.438Z,11348
2017-08-16T15:44:36.414Z,9800
2017-08-16T15:45:46.407Z,10828
2017-08-16T15:46:56.686Z,15220